createdAt,value
2022-10-17T00:00:00.289Z,14.40
2022-10-17T00:03:03.646Z,14.30
2022-10-17T00:06:08.594Z,14.30
2022-10-17T00:09:11.772Z,14.30
2022-10-17T00:12:14.863Z,14.20
2022-10-17T00:15:21.234Z,14.30
2022-10-17T03:26:03.544Z,12.80
2022-10-17T04:17:12.793Z,12.40
2022-10-17T04:51:16.830Z,12.20
2022-10-17T04:58:53.537Z,12.10
2022-10-17T04:59:45.606Z,12.10
2022-10-17T05:01:56.651Z,12.10
2022-10-17T05:04:59.770Z,12.20
2022-10-17T05:08:02.961Z,12.10
2022-10-17T05:11:06.873Z,12.10
2022-10-17T05:14:11.364Z,12.10
2022-10-17T05:17:14.476Z,12.10
2022-10-17T05:20:17.703Z,12.10
2022-10-17T05:23:20.842Z,12.10
2022-10-17T05:26:24.549Z,12.20
2022-10-17T05:29:29.021Z,12.20
2022-10-17T05:32:32.433Z,12.10
2022-10-17T05:35:35.656Z,12.10
2022-10-17T05:38:38.867Z,12.10
2022-10-17T05:41:42.046Z,12.10
2022-10-17T05:44:46.499Z,12.20
2022-10-17T05:47:49.591Z,12.20
2022-10-17T05:50:59.940Z,12.30
2022-10-17T05:54:03.144Z,12.30
2022-10-17T05:57:06.230Z,12.40
2022-10-17T06:00:12.227Z,12.40
2022-10-17T06:03:15.365Z,12.40
2022-10-17T06:06:19.282Z,12.40
2022-10-17T06:09:22.414Z,12.40
2022-10-17T06:12:25.519Z,12.50
2022-10-17T06:15:30.007Z,12.60
2022-10-17T06:18:33.127Z,12.70
2022-10-17T06:21:37.870Z,12.80
2022-10-17T06:24:40.982Z,12.90
2022-10-17T06:27:44.109Z,13.00
2022-10-17T06:30:48.611Z,13.00
2022-10-17T06:33:51.782Z,13.10
2022-10-17T06:36:54.895Z,13.20
2022-10-17T06:39:57.994Z,13.20
2022-10-17T06:43:01.072Z,13.30
2022-10-17T06:46:06.221Z,13.30
2022-10-17T06:49:11.038Z,13.50
2022-10-17T06:52:14.847Z,13.60
2022-10-17T06:55:21.471Z,13.70
2022-10-17T06:58:26.250Z,13.80
2022-10-17T07:01:32.288Z,13.90
2022-10-17T07:04:35.388Z,14.00
2022-10-17T07:07:41.441Z,14.10
2022-10-17T07:10:47.338Z,14.20
2022-10-17T07:13:50.583Z,14.40
2022-10-17T07:16:56.590Z,14.50
2022-10-17T07:19:59.735Z,14.60
2022-10-17T07:23:03.055Z,14.70
2022-10-17T07:26:08.827Z,14.90
2022-10-17T07:29:12.479Z,15.00
2022-10-17T07:32:16.919Z,15.10
2022-10-17T07:35:20.081Z,15.20
2022-10-17T07:38:23.340Z,15.30
2022-10-17T07:41:26.641Z,15.40
2022-10-17T07:44:29.758Z,15.60
2022-10-17T07:47:35.828Z,15.80
2022-10-17T07:50:39.077Z,15.90
2022-10-17T07:53:46.425Z,16.10
2022-10-17T07:56:51.925Z,16.20
2022-10-17T07:59:55.376Z,16.40
2022-10-17T08:02:59.892Z,16.60
2022-10-17T08:06:04.266Z,16.80
2022-10-17T08:09:07.454Z,18.00
2022-10-17T08:12:10.614Z,21.30
2022-10-17T08:15:13.850Z,25.00
2022-10-17T08:18:18.772Z,28.10
2022-10-17T08:21:21.897Z,29.80
2022-10-17T08:24:25.051Z,30.80
2022-10-17T08:27:29.002Z,32.70
2022-10-17T08:30:32.071Z,34.60
2022-10-17T08:33:36.655Z,36.30
2022-10-17T08:36:39.759Z,37.40
2022-10-17T08:39:43.333Z,38.60
2022-10-17T08:42:59.268Z,39.90
2022-10-17T08:46:04.889Z,40.70
2022-10-17T08:49:15.810Z,41.30
2022-10-17T08:52:29.467Z,41.50
2022-10-17T08:55:39.983Z,42.20
2022-10-17T08:58:46.114Z,42.60
2022-10-17T09:01:54.170Z,43.50
2022-10-17T09:05:26.358Z,44.30
2022-10-17T09:08:39.547Z,45.00
2022-10-17T09:11:55.824Z,45.50
2022-10-17T09:15:11.883Z,45.80
2022-10-17T09:18:22.066Z,46.40
2022-10-17T09:21:33.265Z,46.80
2022-10-17T09:24:43.338Z,47.00
2022-10-17T09:27:49.950Z,47.40
2022-10-17T09:30:58.067Z,47.60
2022-10-17T09:34:04.339Z,48.10
2022-10-17T09:37:13.692Z,48.00
2022-10-17T09:40:20.986Z,47.90
2022-10-17T09:43:25.162Z,47.90
2022-10-17T09:46:33.854Z,48.40
2022-10-17T09:49:39.436Z,47.60
2022-10-17T09:52:47.842Z,48.10
2022-10-17T09:55:55.574Z,47.50
2022-10-17T09:58:59.788Z,46.80
2022-10-17T10:02:11.336Z,46.20
2022-10-17T10:05:18.946Z,46.30
2022-10-17T10:08:27.461Z,47.00
2022-10-17T10:11:48.255Z,47.90
2022-10-17T10:14:54.709Z,47.50
2022-10-17T10:17:58.605Z,47.20
2022-10-17T10:21:11.320Z,47.80
2022-10-17T10:24:15.898Z,48.30
2022-10-17T10:27:20.054Z,49.20
2022-10-17T10:30:29.943Z,49.00
2022-10-17T10:33:40.426Z,49.00
2022-10-17T10:36:57.468Z,48.50
2022-10-17T10:40:04.487Z,49.40
2022-10-17T10:43:08.911Z,49.80
2022-10-17T10:46:20.466Z,50.20
2022-10-17T10:49:31.390Z,50.20
2022-10-17T10:52:43.629Z,50.40
2022-10-17T10:55:51.496Z,50.20
2022-10-17T10:58:58.069Z,50.60
2022-10-17T11:02:09.591Z,50.10
2022-10-17T11:05:17.344Z,49.90
2022-10-17T11:08:27.746Z,49.40
2022-10-17T11:11:39.157Z,50.40
2022-10-17T11:14:48.069Z,50.30
2022-10-17T11:17:58.434Z,50.30
2022-10-17T11:21:06.724Z,50.90
2022-10-17T11:24:15.475Z,51.10
2022-10-17T11:27:22.465Z,49.20
2022-10-17T11:30:28.248Z,49.20
2022-10-17T11:33:41.775Z,50.20
2022-10-17T11:36:46.780Z,50.90
2022-10-17T11:39:55.105Z,50.50
2022-10-17T11:43:04.178Z,50.20
2022-10-17T11:46:15.373Z,50.40
2022-10-17T11:49:23.993Z,49.80
2022-10-17T11:52:56.425Z,49.70
2022-10-17T11:56:01.910Z,50.80
2022-10-17T11:59:25.680Z,51.50
2022-10-17T12:02:37.919Z,50.90
2022-10-17T12:05:46.664Z,51.50
2022-10-17T12:08:56.493Z,51.50
2022-10-17T12:12:01.363Z,51.40
2022-10-17T12:15:32.308Z,51.90
2022-10-17T12:18:35.493Z,51.60
2022-10-17T12:21:57.012Z,51.20
2022-10-17T12:25:02.108Z,50.00
2022-10-17T12:28:16.428Z,48.90
2022-10-17T12:31:32.689Z,48.20
2022-10-17T12:34:38.099Z,49.10
2022-10-17T12:38:19.846Z,48.60
2022-10-17T12:41:55.832Z,47.00
2022-10-17T12:44:59.017Z,46.80
2022-10-17T12:48:03.889Z,47.00
2022-10-17T12:51:34.192Z,47.00
2022-10-17T12:54:47.243Z,47.10
2022-10-17T12:57:58.687Z,47.20
2022-10-17T13:01:23.132Z,46.80
2022-10-17T13:04:27.973Z,47.20
2022-10-17T13:07:31.597Z,46.30
2022-10-17T13:10:40.719Z,45.90
2022-10-17T13:13:49.368Z,44.50
2022-10-17T13:16:54.636Z,43.40
2022-10-17T13:19:59.989Z,42.20
2022-10-17T13:23:03.867Z,41.80
2022-10-17T13:26:13.348Z,41.90
2022-10-17T13:29:18.128Z,42.00
2022-10-17T13:32:21.887Z,41.80
2022-10-17T13:35:55.469Z,41.20
2022-10-17T13:38:53.366Z,38.90
2022-10-17T13:41:59.132Z,36.80
2022-10-17T13:45:02.266Z,34.60
2022-10-17T13:48:08.247Z,32.90
2022-10-17T13:51:14.708Z,31.30
2022-10-17T13:54:37.409Z,30.00
2022-10-17T13:57:40.529Z,29.00
2022-10-17T14:00:44.494Z,28.00
2022-10-17T14:03:54.051Z,27.40
2022-10-17T14:07:07.355Z,27.00
2022-10-17T14:10:20.427Z,26.60
2022-10-17T14:13:25.721Z,26.30
2022-10-17T14:16:35.421Z,26.20
2022-10-17T14:19:39.274Z,25.90
2022-10-17T14:22:47.274Z,25.60
2022-10-17T14:26:07.416Z,25.30
2022-10-17T14:29:24.893Z,25.00
2022-10-17T14:32:29.189Z,24.60
2022-10-17T14:35:41.434Z,24.30
2022-10-17T14:38:52.532Z,24.20
2022-10-17T14:41:58.657Z,24.10
2022-10-17T14:45:09.910Z,24.10
2022-10-17T14:48:16.175Z,23.90
2022-10-17T14:51:20.174Z,23.70
2022-10-17T14:54:29.192Z,23.50
2022-10-17T14:57:45.091Z,23.20
2022-10-17T15:00:48.270Z,23.00
2022-10-17T15:03:51.412Z,23.00
2022-10-17T15:06:56.083Z,23.10
2022-10-17T15:10:01.065Z,23.10
2022-10-17T15:13:26.785Z,23.00
2022-10-17T15:16:32.151Z,23.00
2022-10-17T15:19:35.285Z,23.00
2022-10-17T15:22:38.411Z,22.90
2022-10-17T15:25:42.974Z,22.90
2022-10-17T15:28:47.475Z,22.80
2022-10-17T15:31:50.681Z,22.70
2022-10-17T15:34:53.818Z,22.70
2022-10-17T15:37:56.996Z,22.60
2022-10-17T15:41:01.478Z,22.60
2022-10-17T15:44:04.677Z,22.60
2022-10-17T15:47:10.976Z,22.50
2022-10-17T15:50:16.149Z,22.40
2022-10-17T15:53:19.406Z,22.40
2022-10-17T15:56:27.489Z,22.30
2022-10-17T15:59:34.572Z,22.20
2022-10-17T16:02:37.788Z,22.20
2022-10-17T16:05:41.049Z,22.10
2022-10-17T16:08:44.216Z,22.00
2022-10-17T16:11:48.741Z,21.90
2022-10-17T16:14:51.856Z,21.80
2022-10-17T16:17:56.637Z,21.70
2022-10-17T16:20:59.900Z,21.60
2022-10-17T16:24:03.526Z,21.60
2022-10-17T16:27:09.234Z,21.50
2022-10-17T16:30:12.504Z,21.40
2022-10-17T16:33:15.692Z,21.20
2022-10-17T16:36:18.868Z,21.20
2022-10-17T16:39:22.077Z,21.10
2022-10-17T16:42:26.710Z,21.00
2022-10-17T16:45:29.919Z,20.90
2022-10-17T16:48:33.083Z,20.80
2022-10-17T16:51:36.939Z,20.70
2022-10-17T16:54:40.234Z,20.60
2022-10-17T16:57:49.225Z,20.60
2022-10-17T17:00:52.809Z,20.50
2022-10-17T17:03:58.004Z,20.40
2022-10-17T17:07:01.884Z,20.30
2022-10-17T17:10:06.156Z,20.20
2022-10-17T17:13:10.762Z,20.10
2022-10-17T17:16:18.816Z,20.10
2022-10-17T17:19:22.432Z,20.00
2022-10-17T17:22:26.690Z,19.90
2022-10-17T17:25:30.243Z,19.80
2022-10-17T17:28:37.344Z,19.70
2022-10-17T17:31:41.743Z,19.60
2022-10-17T17:34:45.689Z,19.50
2022-10-17T17:37:49.184Z,19.50
2022-10-17T17:40:54.285Z,19.40
2022-10-17T17:43:59.574Z,19.30
2022-10-17T17:47:03.181Z,19.30
2022-10-17T17:50:08.033Z,19.20
2022-10-17T17:53:13.063Z,19.20
2022-10-17T17:56:18.738Z,19.10
2022-10-17T17:59:24.024Z,19.00
2022-10-17T18:02:27.964Z,19.00
2022-10-17T18:05:32.407Z,18.90
2022-10-17T18:08:40.267Z,18.80
2022-10-17T18:11:43.866Z,18.60
2022-10-17T18:14:49.976Z,18.60
2022-10-17T18:17:53.969Z,18.50
2022-10-17T18:21:03.926Z,18.40
2022-10-17T18:24:08.765Z,18.40
2022-10-17T18:27:14.105Z,18.30
2022-10-17T18:30:21.222Z,18.30
2022-10-17T18:33:27.857Z,18.20
2022-10-17T18:36:33.536Z,18.20
2022-10-17T18:39:38.175Z,18.10
2022-10-17T18:42:45.455Z,18.10
2022-10-17T18:45:51.482Z,18.00
2022-10-17T18:48:56.354Z,17.90
2022-10-17T18:52:00.663Z,17.90
2022-10-17T18:55:04.517Z,17.80
2022-10-17T18:58:09.148Z,17.80
2022-10-17T19:01:17.412Z,17.70
2022-10-17T19:04:22.006Z,17.60
2022-10-17T19:07:26.240Z,17.60
2022-10-17T19:10:29.862Z,17.60
2022-10-17T19:13:33.996Z,17.60
2022-10-17T19:16:39.074Z,17.50
2022-10-17T19:19:43.094Z,17.40
2022-10-17T19:22:47.380Z,17.40
2022-10-17T19:25:51.336Z,17.40
2022-10-17T19:28:56.124Z,17.40
2022-10-17T19:32:01.380Z,17.40
2022-10-17T19:35:05.920Z,17.30
2022-10-17T19:38:09.592Z,17.20
2022-10-17T19:41:15.772Z,17.20
2022-10-17T19:44:19.502Z,17.10
2022-10-17T19:47:24.484Z,17.10
2022-10-17T19:50:27.587Z,17.00
2022-10-17T19:53:31.825Z,17.00
2022-10-17T19:56:38.316Z,16.90
2022-10-17T19:59:42.529Z,16.90
2022-10-17T20:02:47.596Z,16.80
2022-10-17T20:05:51.330Z,16.80
2022-10-17T20:08:55.850Z,16.80
2022-10-17T20:11:59.533Z,16.70
2022-10-17T20:15:03.608Z,16.70
2022-10-17T20:18:08.796Z,16.60
2022-10-17T20:21:14.945Z,16.60
2022-10-17T20:24:18.862Z,16.60
2022-10-17T20:27:26.808Z,16.60
2022-10-17T20:30:30.871Z,16.50
2022-10-17T20:33:35.485Z,16.50
2022-10-17T20:36:38.581Z,16.40
2022-10-17T20:39:41.739Z,16.40
2022-10-17T20:42:44.881Z,16.40
2022-10-17T20:45:51.209Z,16.40
2022-10-17T20:48:58.463Z,16.30
2022-10-17T20:52:02.169Z,16.30
2022-10-17T20:55:05.763Z,16.20
2022-10-17T20:58:10.420Z,16.20
2022-10-17T21:01:13.572Z,16.10
2022-10-17T21:07:41.329Z,16.10
2022-10-17T21:10:44.446Z,16.00
2022-10-17T21:13:48.375Z,16.00
2022-10-17T21:16:52.140Z,15.90
2022-10-17T21:19:57.032Z,15.90
2022-10-17T21:23:00.786Z,15.90
2022-10-17T21:26:04.129Z,15.90
2022-10-17T21:29:07.866Z,15.80
2022-10-17T21:32:20.614Z,15.80
2022-10-17T21:35:36.030Z,15.80
2022-10-17T21:38:39.848Z,15.80
2022-10-17T21:41:43.693Z,15.70
2022-10-17T21:44:46.796Z,15.60
2022-10-17T21:48:11.670Z,15.60
2022-10-17T21:51:17.373Z,15.60
2022-10-17T21:54:22.957Z,15.60
2022-10-17T21:57:26.569Z,15.60
2022-10-17T22:00:29.801Z,15.50
2022-10-17T22:03:34.402Z,15.60
2022-10-17T22:06:41.158Z,15.50
2022-10-17T22:09:44.462Z,15.50
2022-10-17T22:12:47.562Z,15.50
2022-10-17T22:15:50.699Z,15.50
2022-10-17T22:18:53.967Z,15.40
2022-10-17T22:21:58.479Z,15.40
2022-10-17T22:25:01.589Z,15.40
2022-10-17T22:28:04.886Z,15.30
2022-10-17T22:31:08.813Z,15.30
2022-10-17T22:34:14.293Z,15.30
2022-10-17T22:37:18.799Z,15.20
2022-10-17T22:40:21.898Z,15.20
2022-10-17T22:43:25.146Z,15.20
2022-10-17T22:46:28.464Z,15.20
2022-10-17T22:49:33.297Z,15.10
2022-10-17T22:52:37.778Z,15.10
2022-10-17T22:55:40.868Z,15.10
2022-10-17T22:58:44.063Z,15.10
2022-10-17T23:01:47.247Z,15.00
2022-10-17T23:04:50.425Z,15.00
2022-10-17T23:07:54.890Z,15.00
2022-10-17T23:10:58.242Z,14.90
2022-10-17T23:14:01.361Z,14.90
2022-10-17T23:17:05.181Z,14.80
2022-10-17T23:20:09.368Z,14.80
2022-10-17T23:23:13.913Z,14.80
2022-10-17T23:26:17.098Z,14.80
2022-10-17T23:29:20.322Z,14.80
2022-10-17T23:32:23.464Z,14.70
2022-10-17T23:35:26.647Z,14.70
2022-10-17T23:38:31.093Z,14.70
2022-10-17T23:41:34.520Z,14.70
2022-10-17T23:44:37.646Z,14.60
2022-10-17T23:47:40.921Z,14.60
2022-10-17T23:50:44.581Z,14.60
2022-10-17T23:53:49.093Z,14.60
2022-10-17T23:56:52.243Z,14.60
2022-10-17T23:59:55.524Z,14.60
